Notice: Undefined index: name in /home/yearbywe/public_html/pwsTEST/metar_load_funct.php on line 53

Notice: Undefined index: humidity_percent in /home/yearbywe/public_html/pwsTEST/metar_load_funct.php on line 95
Metar Aviation Weather Data     EGNV
 X  CloseMetar Aviation Weather Data     EGNV

Temperature

14°C Temp

8°C Dewpoint

% Humidity



Wind

16 KM/H

10 MPH

 9 KTS



260°
Due West
Current Conditions

Mostly Scattered Clouds Mostly Scattered Clouds
Pressure 1030.91 (hPa) - 30.44 (in)
Visibility 6.2 (mi) - 10 (km)
Airport
Airport-code EGNV

Location 0 (mi)

Metar:
EGNV 211220Z 26009KT 9999 SCT026 14/08 Q1031


Notice: Undefined offset: 1 in /home/yearbywe/public_html/pwsTEST/metar_popup.php on line 198

Notice: Undefined offset: 1 in /home/yearbywe/public_html/pwsTEST/metar_popup.php on line 200
Time: 09-09-2026 01:00